sensor_id;sensor_type;location;lat;lon;timestamp;pressure;altitude;pressure_sealevel;temperature;humidity
68988;BME280;56038;46.080;11.116;2023-04-04T00:02:07;99197.69;;;9.07;22.84
68988;BME280;56038;46.080;11.116;2023-04-04T00:07:17;99189.81;;;8.85;24.05
68988;BME280;56038;46.080;11.116;2023-04-04T00:12:23;99188.97;;;8.83;23.55
68988;BME280;56038;46.080;11.116;2023-04-04T00:17:25;99192.63;;;8.79;23.48
68988;BME280;56038;46.080;11.116;2023-04-04T00:22:28;99200.59;;;8.75;22.77
68988;BME280;56038;46.080;11.116;2023-04-04T00:27:30;99187.41;;;8.79;22.94
68988;BME280;56038;46.080;11.116;2023-04-04T00:32:32;99181.56;;;8.73;22.81
68988;BME280;56038;46.080;11.116;2023-04-04T00:37:35;99170.38;;;8.70;23.14
68988;BME280;56038;46.080;11.116;2023-04-04T00:42:37;99169.59;;;8.67;22.90
68988;BME280;56038;46.080;11.116;2023-04-04T00:47:42;99171.47;;;8.63;22.56
68988;BME280;56038;46.080;11.116;2023-04-04T00:52:45;99157.66;;;8.61;22.82
68988;BME280;56038;46.080;11.116;2023-04-04T00:57:47;99172.31;;;8.64;22.89
68988;BME280;56038;46.080;11.116;2023-04-04T01:02:49;99163.84;;;8.59;23.06
68988;BME280;56038;46.080;11.116;2023-04-04T01:08:00;99159.91;;;8.47;22.81
68988;BME280;56038;46.080;11.116;2023-04-04T01:13:07;99166.06;;;8.45;23.18
68988;BME280;56038;46.080;11.116;2023-04-04T01:18:11;99167.03;;;8.42;22.84
68988;BME280;56038;46.080;11.116;2023-04-04T01:23:16;99171.59;;;8.35;22.65
68988;BME280;56038;46.080;11.116;2023-04-04T01:28:19;99160.28;;;8.36;22.94
68988;BME280;56038;46.080;11.116;2023-04-04T01:33:24;99168.25;;;8.30;22.89
68988;BME280;56038;46.080;11.116;2023-04-04T01:38:35;99169.44;;;8.22;22.81
68988;BME280;56038;46.080;11.116;2023-04-04T01:43:43;99179.06;;;8.18;22.78
68988;BME280;56038;46.080;11.116;2023-04-04T01:48:45;99180.81;;;8.18;22.95
68988;BME280;56038;46.080;11.116;2023-04-04T01:53:47;99178.44;;;8.11;22.90
68988;BME280;56038;46.080;11.116;2023-04-04T01:58:50;99168.94;;;8.10;23.37
68988;BME280;56038;46.080;11.116;2023-04-04T02:03:53;99176.91;;;8.06;22.90
68988;BME280;56038;46.080;11.116;2023-04-04T02:08:54;99174.50;;;8.00;22.87
68988;BME280;56038;46.080;11.116;2023-04-04T02:13:58;99167.69;;;7.96;23.26
68988;BME280;56038;46.080;11.116;2023-04-04T02:19:00;99175.59;;;7.93;23.11
68988;BME280;56038;46.080;11.116;2023-04-04T02:24:02;99189.69;;;7.86;23.27
68988;BME280;56038;46.080;11.116;2023-04-04T02:29:05;99193.34;;;7.80;23.05
68988;BME280;56038;46.080;11.116;2023-04-04T02:34:07;99185.53;;;7.80;23.38
68988;BME280;56038;46.080;11.116;2023-04-04T02:39:08;99170.09;;;7.75;23.32
68988;BME280;56038;46.080;11.116;2023-04-04T02:44:12;99183.22;;;7.71;23.06
68988;BME280;56038;46.080;11.116;2023-04-04T02:49:13;99191.19;;;7.66;23.13
68988;BME280;56038;46.080;11.116;2023-04-04T02:54:15;99184.38;;;7.62;23.09
68988;BME280;56038;46.080;11.116;2023-04-04T02:59:19;99187.88;;;7.61;23.25
68988;BME280;56038;46.080;11.116;2023-04-04T03:04:20;99182.78;;;7.58;23.42
68988;BME280;56038;46.080;11.116;2023-04-04T03:09:22;99184.69;;;7.51;23.31
68988;BME280;56038;46.080;11.116;2023-04-04T03:14:25;99183.91;;;7.49;23.00
68988;BME280;56038;46.080;11.116;2023-04-04T03:19:29;99189.34;;;7.42;23.36
68988;BME280;56038;46.080;11.116;2023-04-04T03:24:31;99178.13;;;7.40;23.25
68988;BME280;56038;46.080;11.116;2023-04-04T03:29:34;99172.06;;;7.39;23.17
68988;BME280;56038;46.080;11.116;2023-04-04T03:34:36;99189.50;;;7.36;23.42
68988;BME280;56038;46.080;11.116;2023-04-04T03:39:38;99172.28;;;7.33;23.55
68988;BME280;56038;46.080;11.116;2023-04-04T03:44:41;99174.81;;;7.35;23.45
68988;BME280;56038;46.080;11.116;2023-04-04T03:49:43;99168.19;;;7.25;23.49
68988;BME280;56038;46.080;11.116;2023-04-04T03:54:45;99170.66;;;7.29;23.64
68988;BME280;56038;46.080;11.116;2023-04-04T03:59:48;99178.50;;;7.28;23.14
68988;BME280;56038;46.080;11.116;2023-04-04T04:04:50;99182.81;;;7.29;23.11
68988;BME280;56038;46.080;11.116;2023-04-04T04:09:51;99189.81;;;7.25;23.51
68988;BME280;56038;46.080;11.116;2023-04-04T04:14:55;99187.38;;;7.20;23.39
68988;BME280;56038;46.080;11.116;2023-04-04T04:19:57;99195.22;;;7.19;23.39
68988;BME280;56038;46.080;11.116;2023-04-04T04:24:59;99190.91;;;7.18;23.58
68988;BME280;56038;46.080;11.116;2023-04-04T04:30:02;99190.19;;;7.13;23.44
68988;BME280;56038;46.080;11.116;2023-04-04T04:35:05;99186.81;;;7.11;23.70
68988;BME280;56038;46.080;11.116;2023-04-04T04:40:08;99204.97;;;7.11;23.24
68988;BME280;56038;46.080;11.116;2023-04-04T04:45:12;99194.69;;;7.06;23.55
68988;BME280;56038;46.080;11.116;2023-04-04T04:50:13;99202.50;;;7.06;23.65
68988;BME280;56038;46.080;11.116;2023-04-04T04:55:15;99207.69;;;7.06;23.36
68988;BME280;56038;46.080;11.116;2023-04-04T05:00:20;99200.75;;;7.07;23.41
68988;BME280;56038;46.080;11.116;2023-04-04T05:05:26;99198.16;;;7.07;23.36
68988;BME280;56038;46.080;11.116;2023-04-04T05:10:31;99201.69;;;7.04;23.26
68988;BME280;56038;46.080;11.116;2023-04-04T05:15:34;99213.97;;;6.99;23.50
68988;BME280;56038;46.080;11.116;2023-04-04T05:20:36;99210.47;;;7.00;24.03
68988;BME280;56038;46.080;11.116;2023-04-04T05:25:38;99227.09;;;6.93;24.25
68988;BME280;56038;46.080;11.116;2023-04-04T05:30:41;99230.53;;;6.95;23.91
68988;BME280;56038;46.080;11.116;2023-04-04T05:35:43;99231.66;;;6.85;24.54
68988;BME280;56038;46.080;11.116;2023-04-04T05:40:45;99234.19;;;6.88;24.09
68988;BME280;56038;46.080;11.116;2023-04-04T05:45:48;99240.78;;;7.00;24.38
68988;BME280;56038;46.080;11.116;2023-04-04T05:50:50;99248.53;;;7.01;24.45
68988;BME280;56038;46.080;11.116;2023-04-04T05:55:52;99251.69;;;7.12;24.83
68988;BME280;56038;46.080;11.116;2023-04-04T06:00:55;99246.25;;;7.20;25.04
68988;BME280;56038;46.080;11.116;2023-04-04T06:05:58;99243.19;;;7.37;25.09
68988;BME280;56038;46.080;11.116;2023-04-04T06:10:59;99247.88;;;7.54;24.10
68988;BME280;56038;46.080;11.116;2023-04-04T06:16:03;99250.88;;;7.69;23.17
68988;BME280;56038;46.080;11.116;2023-04-04T06:21:06;99243.50;;;7.84;23.74
68988;BME280;56038;46.080;11.116;2023-04-04T06:26:07;99241.56;;;7.90;22.91
68988;BME280;56038;46.080;11.116;2023-04-04T06:31:11;99261.06;;;8.03;22.43
68988;BME280;56038;46.080;11.116;2023-04-04T06:36:12;99245.88;;;8.18;23.74
68988;BME280;56038;46.080;11.116;2023-04-04T06:41:14;99243.78;;;8.29;23.72
68988;BME280;56038;46.080;11.116;2023-04-04T06:46:18;99239.75;;;8.47;23.12
68988;BME280;56038;46.080;11.116;2023-04-04T06:51:19;99242.69;;;8.62;21.37
68988;BME280;56038;46.080;11.116;2023-04-04T06:56:21;99226.53;;;8.78;21.89
68988;BME280;56038;46.080;11.116;2023-04-04T07:01:24;99231.72;;;8.78;21.21
68988;BME280;56038;46.080;11.116;2023-04-04T07:06:26;99226.22;;;8.87;20.39
68988;BME280;56038;46.080;11.116;2023-04-04T07:11:29;99231.84;;;8.99;21.12
68988;BME280;56038;46.080;11.116;2023-04-04T07:16:32;99226.28;;;9.09;19.28
68988;BME280;56038;46.080;11.116;2023-04-04T07:21:35;99204.53;;;9.10;19.95
68988;BME280;56038;46.080;11.116;2023-04-04T07:26:37;99203.69;;;9.33;20.79
68988;BME280;56038;46.080;11.116;2023-04-04T07:31:41;99205.03;;;9.43;20.06
68988;BME280;56038;46.080;11.116;2023-04-04T07:36:43;99196.53;;;9.59;19.64
68988;BME280;56038;46.080;11.116;2023-04-04T07:41:45;99198.81;;;9.69;19.32
68988;BME280;56038;46.080;11.116;2023-04-04T07:46:48;99195.47;;;9.87;20.15
68988;BME280;56038;46.080;11.116;2023-04-04T07:51:50;99198.66;;;9.94;19.39
68988;BME280;56038;46.080;11.116;2023-04-04T07:56:51;99194.19;;;9.97;19.19
68988;BME280;56038;46.080;11.116;2023-04-04T08:01:55;99182.34;;;10.10;18.16
68988;BME280;56038;46.080;11.116;2023-04-04T08:06:56;99186.25;;;10.20;18.33
68988;BME280;56038;46.080;11.116;2023-04-04T08:11:58;99176.84;;;10.38;18.58
68988;BME280;56038;46.080;11.116;2023-04-04T08:17:01;99186.19;;;10.44;18.24
68988;BME280;56038;46.080;11.116;2023-04-04T08:22:03;99177.03;;;10.74;18.44
68988;BME280;56038;46.080;11.116;2023-04-04T08:27:05;99165.06;;;10.89;17.86
68988;BME280;56038;46.080;11.116;2023-04-04T08:32:08;99155.56;;;10.87;17.00
68988;BME280;56038;46.080;11.116;2023-04-04T08:37:10;99158.41;;;11.01;17.28
68988;BME280;56038;46.080;11.116;2023-04-04T08:42:14;99137.16;;;11.08;17.88
68988;BME280;56038;46.080;11.116;2023-04-04T08:47:23;99139.81;;;11.45;18.05
68988;BME280;56038;46.080;11.116;2023-04-04T08:52:27;99122.97;;;11.69;17.57
68988;BME280;56038;46.080;11.116;2023-04-04T08:57:29;99126.75;;;11.81;17.17
68988;BME280;56038;46.080;11.116;2023-04-04T09:02:36;99124.72;;;11.87;16.64
68988;BME280;56038;46.080;11.116;2023-04-04T09:07:38;99112.41;;;12.07;16.99
68988;BME280;56038;46.080;11.116;2023-04-04T09:12:43;99110.03;;;12.52;16.80
68988;BME280;56038;46.080;11.116;2023-04-04T09:17:47;99096.34;;;12.96;14.60
68988;BME280;56038;46.080;11.116;2023-04-04T09:22:49;99093.56;;;13.15;16.14
68988;BME280;56038;46.080;11.116;2023-04-04T09:27:51;99090.09;;;13.62;16.37
68988;BME280;56038;46.080;11.116;2023-04-04T09:32:55;99082.72;;;13.68;15.16
68988;BME280;56038;46.080;11.116;2023-04-04T09:37:58;99077.31;;;14.16;15.64
68988;BME280;56038;46.080;11.116;2023-04-04T09:43:00;99074.31;;;14.07;14.93
68988;BME280;56038;46.080;11.116;2023-04-04T09:48:05;99061.63;;;14.14;14.24
68988;BME280;56038;46.080;11.116;2023-04-04T09:53:06;99063.56;;;14.41;14.65
68988;BME280;56038;46.080;11.116;2023-04-04T09:58:13;99046.31;;;14.65;12.42
68988;BME280;56038;46.080;11.116;2023-04-04T10:03:17;99033.72;;;14.84;13.95
68988;BME280;56038;46.080;11.116;2023-04-04T10:08:22;99030.59;;;15.46;13.52
68988;BME280;56038;46.080;11.116;2023-04-04T10:13:25;99028.97;;;15.97;13.50
68988;BME280;56038;46.080;11.116;2023-04-04T10:18:30;99021.69;;;15.88;12.11
68988;BME280;56038;46.080;11.116;2023-04-04T10:23:33;99005.78;;;16.15;12.86
68988;BME280;56038;46.080;11.116;2023-04-04T10:28:35;99012.91;;;16.64;12.52
68988;BME280;56038;46.080;11.116;2023-04-04T10:33:43;99000.34;;;17.17;11.19
68988;BME280;56038;46.080;11.116;2023-04-04T10:38:54;98989.53;;;17.44;10.74
68988;BME280;56038;46.080;11.116;2023-04-04T10:44:00;98980.78;;;17.43;10.37
68988;BME280;56038;46.080;11.116;2023-04-04T10:49:10;98981.16;;;17.74;10.87
68988;BME280;56038;46.080;11.116;2023-04-04T10:54:13;98979.38;;;17.85;11.00
68988;BME280;56038;46.080;11.116;2023-04-04T10:59:15;98975.34;;;18.15;11.11
68988;BME280;56038;46.080;11.116;2023-04-04T11:04:20;98951.66;;;18.58;10.09
68988;BME280;56038;46.080;11.116;2023-04-04T11:09:47;98959.00;;;19.20;9.25
68988;BME280;56038;46.080;11.116;2023-04-04T11:15:08;98950.06;;;19.21;8.65
68988;BME280;56038;46.080;11.116;2023-04-04T11:20:14;98939.63;;;19.72;9.65
68988;BME280;56038;46.080;11.116;2023-04-04T11:25:28;98928.31;;;19.91;8.33
68988;BME280;56038;46.080;11.116;2023-04-04T11:30:36;98922.19;;;20.61;9.67
68988;BME280;56038;46.080;11.116;2023-04-04T11:35:48;98919.25;;;20.55;10.84
68988;BME280;56038;46.080;11.116;2023-04-04T11:40:54;98923.00;;;20.52;12.01
68988;BME280;56038;46.080;11.116;2023-04-04T11:46:04;98916.41;;;20.16;12.20
68988;BME280;56038;46.080;11.116;2023-04-04T11:51:09;98912.59;;;20.89;12.31
68988;BME280;56038;46.080;11.116;2023-04-04T11:56:14;98898.81;;;22.00;12.16
68988;BME280;56038;46.080;11.116;2023-04-04T12:01:16;98896.81;;;22.39;11.74
68988;BME280;56038;46.080;11.116;2023-04-04T12:06:19;98906.59;;;21.45;10.95
68988;BME280;56038;46.080;11.116;2023-04-04T12:11:23;98893.19;;;22.13;11.45
68988;BME280;56038;46.080;11.116;2023-04-04T12:16:26;98891.81;;;21.90;11.79
68988;BME280;56038;46.080;11.116;2023-04-04T12:21:31;98884.44;;;21.83;13.14
68988;BME280;56038;46.080;11.116;2023-04-04T12:26:33;98886.59;;;20.24;13.18
68988;BME280;56038;46.080;11.116;2023-04-04T12:31:37;98876.94;;;20.63;13.28
68988;BME280;56038;46.080;11.116;2023-04-04T12:36:40;98872.09;;;20.38;14.49
68988;BME280;56038;46.080;11.116;2023-04-04T12:41:50;98876.31;;;19.17;14.56
68988;BME280;56038;46.080;11.116;2023-04-04T12:46:55;98870.59;;;18.57;16.38
68988;BME280;56038;46.080;11.116;2023-04-04T12:51:59;98865.47;;;18.44;16.73
68988;BME280;56038;46.080;11.116;2023-04-04T12:57:04;98865.69;;;19.28;16.65
68988;BME280;56038;46.080;11.116;2023-04-04T13:02:10;98850.44;;;19.62;16.15
68988;BME280;56038;46.080;11.116;2023-04-04T13:07:24;98874.81;;;19.03;16.98
68988;BME280;56038;46.080;11.116;2023-04-04T13:12:53;98859.47;;;18.65;16.92
68988;BME280;56038;46.080;11.116;2023-04-04T13:17:55;98856.81;;;18.65;17.27
68988;BME280;56038;46.080;11.116;2023-04-04T13:22:59;98847.66;;;18.69;16.68
68988;BME280;56038;46.080;11.116;2023-04-04T13:28:00;98845.56;;;19.04;16.96
68988;BME280;56038;46.080;11.116;2023-04-04T13:33:02;98831.38;;;19.47;16.59
68988;BME280;56038;46.080;11.116;2023-04-04T13:38:05;98831.00;;;19.72;16.68
68988;BME280;56038;46.080;11.116;2023-04-04T13:43:07;98837.16;;;18.78;17.45
68988;BME280;56038;46.080;11.116;2023-04-04T13:48:10;98830.91;;;18.79;17.20
68988;BME280;56038;46.080;11.116;2023-04-04T13:53:13;98826.59;;;19.20;16.96
68988;BME280;56038;46.080;11.116;2023-04-04T13:58:15;98821.75;;;19.04;17.25
68988;BME280;56038;46.080;11.116;2023-04-04T14:03:19;98824.78;;;19.00;17.22
68988;BME280;56038;46.080;11.116;2023-04-04T14:08:22;98817.56;;;18.59;17.26
68988;BME280;56038;46.080;11.116;2023-04-04T14:13:24;98815.47;;;18.41;17.66
68988;BME280;56038;46.080;11.116;2023-04-04T14:18:26;98819.34;;;18.26;17.95
68988;BME280;56038;46.080;11.116;2023-04-04T14:23:29;98816.78;;;18.47;17.85
68988;BME280;56038;46.080;11.116;2023-04-04T14:28:32;98806.31;;;17.80;18.74
68988;BME280;56038;46.080;11.116;2023-04-04T14:33:34;98818.91;;;16.48;19.49
68988;BME280;56038;46.080;11.116;2023-04-04T14:38:37;98818.69;;;16.28;20.29
68988;BME280;56038;46.080;11.116;2023-04-04T14:43:39;98817.69;;;16.41;20.90
68988;BME280;56038;46.080;11.116;2023-04-04T14:48:40;98810.63;;;16.42;20.63
68988;BME280;56038;46.080;11.116;2023-04-04T14:53:43;98828.56;;;16.24;20.17
68988;BME280;56038;46.080;11.116;2023-04-04T14:58:45;98818.69;;;15.78;20.74
68988;BME280;56038;46.080;11.116;2023-04-04T15:03:47;98830.38;;;15.49;21.31
68988;BME280;56038;46.080;11.116;2023-04-04T15:08:50;98823.09;;;15.27;21.59
68988;BME280;56038;46.080;11.116;2023-04-04T15:13:52;98822.56;;;15.22;22.41
68988;BME280;56038;46.080;11.116;2023-04-04T15:18:53;98835.38;;;15.01;22.60
68988;BME280;56038;46.080;11.116;2023-04-04T15:23:56;98833.72;;;14.73;22.68
68988;BME280;56038;46.080;11.116;2023-04-04T15:28:58;98837.78;;;14.52;23.13
68988;BME280;56038;46.080;11.116;2023-04-04T15:34:00;98832.78;;;14.47;23.01
68988;BME280;56038;46.080;11.116;2023-04-04T15:39:03;98842.47;;;13.91;23.73
68988;BME280;56038;46.080;11.116;2023-04-04T15:44:05;98845.28;;;13.60;24.67
68988;BME280;56038;46.080;11.116;2023-04-04T15:49:07;98849.41;;;13.64;24.16
68988;BME280;56038;46.080;11.116;2023-04-04T15:54:10;98853.78;;;13.49;24.51
68988;BME280;56038;46.080;11.116;2023-04-04T15:59:12;98868.38;;;13.39;24.67
68988;BME280;56038;46.080;11.116;2023-04-04T16:04:13;98861.63;;;13.21;25.20
68988;BME280;56038;46.080;11.116;2023-04-04T16:09:16;98865.00;;;13.07;25.05
68988;BME280;56038;46.080;11.116;2023-04-04T16:14:19;98889.09;;;12.83;25.62
68988;BME280;56038;46.080;11.116;2023-04-04T16:19:20;98883.03;;;12.67;25.63
68988;BME280;56038;46.080;11.116;2023-04-04T16:24:24;98894.88;;;12.58;26.19
68988;BME280;56038;46.080;11.116;2023-04-04T16:29:26;98904.34;;;12.45;26.32
68988;BME280;56038;46.080;11.116;2023-04-04T16:34:30;98901.66;;;12.31;27.04
68988;BME280;56038;46.080;11.116;2023-04-04T16:39:33;98913.38;;;12.24;26.84
68988;BME280;56038;46.080;11.116;2023-04-04T16:44:35;98916.16;;;12.21;26.62
68988;BME280;56038;46.080;11.116;2023-04-04T16:49:37;98922.59;;;12.15;27.15
68988;BME280;56038;46.080;11.116;2023-04-04T16:54:40;98924.31;;;11.99;28.21
68988;BME280;56038;46.080;11.116;2023-04-04T16:59:42;98948.28;;;11.91;27.71
68988;BME280;56038;46.080;11.116;2023-04-04T17:04:43;98934.44;;;11.72;28.15
68988;BME280;56038;46.080;11.116;2023-04-04T17:09:46;98954.31;;;11.42;28.39
68988;BME280;56038;46.080;11.116;2023-04-04T17:14:49;98952.72;;;11.20;29.15
68988;BME280;56038;46.080;11.116;2023-04-04T17:19:51;98970.41;;;10.98;29.22
68988;BME280;56038;46.080;11.116;2023-04-04T17:24:54;98980.38;;;10.90;29.77
68988;BME280;56038;46.080;11.116;2023-04-04T17:29:56;98988.50;;;10.84;30.06
68988;BME280;56038;46.080;11.116;2023-04-04T17:34:58;98996.28;;;10.66;30.33
68988;BME280;56038;46.080;11.116;2023-04-04T17:40:01;99014.13;;;10.57;30.78
68988;BME280;56038;46.080;11.116;2023-04-04T17:45:06;99019.56;;;10.52;30.38
68988;BME280;56038;46.080;11.116;2023-04-04T17:50:09;99017.25;;;10.46;31.11
68988;BME280;56038;46.080;11.116;2023-04-04T17:55:13;99031.22;;;10.45;29.95
68988;BME280;56038;46.080;11.116;2023-04-04T18:00:16;99049.97;;;10.53;29.99
68988;BME280;56038;46.080;11.116;2023-04-04T18:05:20;99074.34;;;10.54;30.25
68988;BME280;56038;46.080;11.116;2023-04-04T18:10:26;99074.25;;;10.55;30.31
68988;BME280;56038;46.080;11.116;2023-04-04T18:15:28;99081.44;;;10.31;31.67
68988;BME280;56038;46.080;11.116;2023-04-04T18:20:29;99097.88;;;10.33;30.51
68988;BME280;56038;46.080;11.116;2023-04-04T18:25:33;99115.16;;;10.36;31.13
68988;BME280;56038;46.080;11.116;2023-04-04T18:30:34;99113.59;;;10.32;30.92
68988;BME280;56038;46.080;11.116;2023-04-04T18:35:36;99135.66;;;10.25;31.41
68988;BME280;56038;46.080;11.116;2023-04-04T18:40:40;99144.84;;;10.13;30.98
68988;BME280;56038;46.080;11.116;2023-04-04T18:45:42;99155.34;;;10.11;31.40
68988;BME280;56038;46.080;11.116;2023-04-04T18:50:43;99164.88;;;10.12;31.44
68988;BME280;56038;46.080;11.116;2023-04-04T18:55:47;99176.53;;;10.26;32.61
68988;BME280;56038;46.080;11.116;2023-04-04T19:00:49;99185.81;;;10.11;31.61
68988;BME280;56038;46.080;11.116;2023-04-04T19:05:54;99195.13;;;9.96;32.60
68988;BME280;56038;46.080;11.116;2023-04-04T19:11:01;99202.63;;;9.82;32.10
68988;BME280;56038;46.080;11.116;2023-04-04T19:16:03;99199.59;;;9.71;32.73
68988;BME280;56038;46.080;11.116;2023-04-04T19:21:05;99212.19;;;9.59;32.87
68988;BME280;56038;46.080;11.116;2023-04-04T19:26:08;99224.00;;;9.46;33.01
68988;BME280;56038;46.080;11.116;2023-04-04T19:31:15;99229.44;;;9.40;33.73
68988;BME280;56038;46.080;11.116;2023-04-04T19:36:21;99235.34;;;9.45;32.94
68988;BME280;56038;46.080;11.116;2023-04-04T19:41:34;99245.28;;;9.36;35.02
68988;BME280;56038;46.080;11.116;2023-04-04T19:46:36;99245.03;;;9.42;33.35
68988;BME280;56038;46.080;11.116;2023-04-04T19:51:49;99260.28;;;9.29;34.48
68988;BME280;56038;46.080;11.116;2023-04-04T19:56:57;99270.31;;;9.16;34.59
68988;BME280;56038;46.080;11.116;2023-04-04T20:02:00;99272.38;;;9.07;34.23
68988;BME280;56038;46.080;11.116;2023-04-04T20:07:02;99275.22;;;9.00;34.00
68988;BME280;56038;46.080;11.116;2023-04-04T20:12:06;99280.75;;;8.91;34.60
68988;BME280;56038;46.080;11.116;2023-04-04T20:17:09;99288.91;;;8.81;34.31
68988;BME280;56038;46.080;11.116;2023-04-04T20:22:12;99293.72;;;8.93;34.26
68988;BME280;56038;46.080;11.116;2023-04-04T20:27:20;99296.06;;;9.00;34.70
68988;BME280;56038;46.080;11.116;2023-04-04T20:32:23;99309.34;;;8.93;34.22
68988;BME280;56038;46.080;11.116;2023-04-04T20:37:25;99315.88;;;8.80;34.52
68988;BME280;56038;46.080;11.116;2023-04-04T20:42:35;99322.19;;;8.73;35.70
68988;BME280;56038;46.080;11.116;2023-04-04T20:47:43;99335.38;;;8.68;35.68
68988;BME280;56038;46.080;11.116;2023-04-04T20:52:47;99332.91;;;8.63;35.00
68988;BME280;56038;46.080;11.116;2023-04-04T20:57:53;99342.56;;;8.60;35.20
68988;BME280;56038;46.080;11.116;2023-04-04T21:02:56;99343.69;;;8.53;35.17
68988;BME280;56038;46.080;11.116;2023-04-04T21:07:59;99345.63;;;8.46;35.41
68988;BME280;56038;46.080;11.116;2023-04-04T21:13:04;99350.66;;;8.52;35.74
68988;BME280;56038;46.080;11.116;2023-04-04T21:18:07;99361.91;;;8.53;35.50
68988;BME280;56038;46.080;11.116;2023-04-04T21:23:27;99373.00;;;8.30;38.11
68988;BME280;56038;46.080;11.116;2023-04-04T21:28:33;99382.97;;;8.16;37.55
68988;BME280;56038;46.080;11.116;2023-04-04T21:33:35;99389.47;;;8.01;37.10
68988;BME280;56038;46.080;11.116;2023-04-04T21:38:37;99396.78;;;7.88;37.88
68988;BME280;56038;46.080;11.116;2023-04-04T21:43:40;99401.06;;;7.91;37.35
68988;BME280;56038;46.080;11.116;2023-04-04T21:48:42;99412.28;;;7.93;37.38
68988;BME280;56038;46.080;11.116;2023-04-04T21:53:44;99410.94;;;7.78;38.07
68988;BME280;56038;46.080;11.116;2023-04-04T21:58:47;99415.41;;;7.73;37.77
68988;BME280;56038;46.080;11.116;2023-04-04T22:03:49;99421.81;;;7.61;37.98
68988;BME280;56038;46.080;11.116;2023-04-04T22:08:51;99424.50;;;7.58;37.69
68988;BME280;56038;46.080;11.116;2023-04-04T22:13:54;99434.28;;;7.48;38.12
68988;BME280;56038;46.080;11.116;2023-04-04T22:19:02;99438.13;;;7.34;38.67
68988;BME280;56038;46.080;11.116;2023-04-04T22:24:05;99434.34;;;7.13;39.93
68988;BME280;56038;46.080;11.116;2023-04-04T22:29:10;99440.41;;;7.13;39.88
68988;BME280;56038;46.080;11.116;2023-04-04T22:34:12;99438.63;;;7.15;39.56
68988;BME280;56038;46.080;11.116;2023-04-04T22:39:14;99443.91;;;7.12;39.85
68988;BME280;56038;46.080;11.116;2023-04-04T22:44:23;99442.47;;;6.99;42.05
68988;BME280;56038;46.080;11.116;2023-04-04T22:49:25;99445.53;;;6.81;41.26
68988;BME280;56038;46.080;11.116;2023-04-04T22:54:26;99444.47;;;6.88;40.42
68988;BME280;56038;46.080;11.116;2023-04-04T22:59:29;99456.72;;;6.83;39.83
68988;BME280;56038;46.080;11.116;2023-04-04T23:04:31;99461.00;;;6.85;39.76
68988;BME280;56038;46.080;11.116;2023-04-04T23:09:33;99465.53;;;6.76;41.08
68988;BME280;56038;46.080;11.116;2023-04-04T23:14:36;99473.75;;;6.95;39.90
68988;BME280;56038;46.080;11.116;2023-04-04T23:19:39;99472.38;;;6.78;40.97
68988;BME280;56038;46.080;11.116;2023-04-04T23:24:41;99468.94;;;6.79;40.84
68988;BME280;56038;46.080;11.116;2023-04-04T23:29:45;99468.91;;;6.81;41.21
68988;BME280;56038;46.080;11.116;2023-04-04T23:34:49;99473.34;;;6.74;46.12
68988;BME280;56038;46.080;11.116;2023-04-04T23:39:51;99478.63;;;6.71;41.18
68988;BME280;56038;46.080;11.116;2023-04-04T23:44:54;99477.06;;;6.64;41.38
68988;BME280;56038;46.080;11.116;2023-04-04T23:49:58;99473.41;;;6.34;42.48
68988;BME280;56038;46.080;11.116;2023-04-04T23:55:00;99478.63;;;6.31;42.49
